Wilson Lista — 8PRW — position and weather

sailwx.info

Track history (hours):
 
Tides and Currents Weather Stations Pressure Air Temp Water Temp Dewpoint Dewpoint Depression Visibility Wind Speed Wind Dir Waves Ship Positions

Wilson Lista

Last reported at 2016-Dec-05 07:33 UTC. Time now 2016-Dec-05 08:27 UTC.
Position N 46°09' W 001°13'.

Length 88 m; draft 5.4 m.

Type: Cargo ship. MMSI: 314188000.

Date/timePositionNaut miles runAvg speedWind from/ knotsBaromVisibWave heightAir tempDewpointWater temp
2016-Dec-05 07:33N 46°09' W 001°13'6 6.3
2016-Dec-05 06:33N 46°06' W 001°20'7 6.9
2016-Dec-05 05:33N 46°04' W 001°30'  
2016-Dec-03 01:21N 43°01' W 009°47'8 9.6
2016-Dec-03 00:33N 42°53' W 009°47'211 9.5
2016-Dec-02 02:17N 39°22' W 009°50'710.3
2016-Dec-02 01:33N 39°15' W 009°50'1010.0
2016-Dec-02 00:33N 39°05' W 009°50'9 9.6
2016-Dec-01 23:34N 38°55' W 009°50'1010.0
2016-Dec-01 22:33N 38°45' W 009°50'10 9.7
2016-Dec-01 21:34N 38°35' W 009°50'10 9.6
2016-Dec-01 20:33N 38°26' W 009°50'  
Track history (hours):
 
Tides and Currents Weather Stations Pressure Air Temp Water Temp Dewpoint Dewpoint Depression Visibility Wind Speed Wind Dir Waves Ship Positions

Wilson Lista

Last reported at 2016-Dec-05 07:33 UTC. Time now 2016-Dec-05 08:27 UTC.
Position N 46°09' W 001°13'.

Length 88 m; draft 5.4 m.

Type: Cargo ship. MMSI: 314188000.

Date/timePositionNaut miles runAvg speedWind from/ knotsBaromVisibWave heightAir tempDewpointWater temp
2016-Dec-05 07:33N 46°09' W 001°13'6 6.3
2016-Dec-05 06:33N 46°06' W 001°20'7 6.9
2016-Dec-05 05:33N 46°04' W 001°30'  
2016-Dec-03 01:21N 43°01' W 009°47'8 9.6
2016-Dec-03 00:33N 42°53' W 009°47'211 9.5
2016-Dec-02 02:17N 39°22' W 009°50'710.3
2016-Dec-02 01:33N 39°15' W 009°50'1010.0
2016-Dec-02 00:33N 39°05' W 009°50'9 9.6
2016-Dec-01 23:34N 38°55' W 009°50'1010.0
2016-Dec-01 22:33N 38°45' W 009°50'10 9.7
2016-Dec-01 21:34N 38°35' W 009°50'10 9.6
2016-Dec-01 20:33N 38°26' W 009°50'  

Dump ship's entire track history